Time;durP1;ratioP1;P1;durP2;ratioP2;P2;SDS_P1;SDS_P2;PMS_P1;PMS_P2;Temp;Humidity;BMP_temperature;BMP_pressure;BME280_temperature;BME280_humidity;BME280_pressure;Samples;Min_cycle;Max_cycle;Signal;HPM_P1;HPM_P2
2021/12/28 00:01:03;;;;;;;35.98;16.64;;;;;;;;;;352354;149;859440;-55
2021/12/28 00:02:05;;;;;;;41.35;18.26;;;;;;;;;;351380;151;867117;-55
2021/12/28 00:03:07;;;;;;;55.71;20.49;;;;;;;;;;350625;151;857401;-54
2021/12/28 00:04:08;;;;;;;63.69;24.06;;;;;;;;;;351567;149;857258;-55
2021/12/28 00:05:10;;;;;;;78.26;27.70;;;;;;;;;;351680;150;865675;-55
2021/12/28 00:06:12;;;;;;;63.01;22.83;;;;;;;;;;351510;153;865856;-51
2021/12/28 00:07:14;;;;;;;32.70;16.71;;;;;;;;;;351617;151;857156;-55
2021/12/28 00:08:18;;;;;;;52.94;22.35;;;;;;;;;;352341;149;857285;-56
2021/12/28 00:09:19;;;;;;;33.94;16.37;;;;;;;;;;352069;151;864898;-55
2021/12/28 00:10:21;;;;;;;67.14;24.21;;;;;;;;;;352581;150;859493;-55
2021/12/28 00:11:22;;;;;;;57.50;20.97;;;;;;;;;;348995;149;857593;-55
2021/12/28 00:12:24;;;;;;;28.96;13.59;;;;;;;;;;351588;150;862835;-55
2021/12/28 00:13:25;;;;;;;103.36;33.51;;;;;;;;;;349814;151;857379;-55
2021/12/28 00:14:34;;;;;;;75.38;25.38;;;;;;;;;;349393;150;866644;-55
2021/12/28 00:15:34;;;;;;;28.16;12.94;;;;;;;;;;349940;151;858945;-55
2021/12/28 00:18:04;;;;;;;52.66;21.52;;;;;;;;;;353161;150;858463;-55
2021/12/28 00:19:06;;;;;;;84.16;28.68;;;;;;;;;;349537;151;857507;-55
2021/12/28 00:20:08;;;;;;;75.25;28.54;;;;;;;;;;353604;149;857300;-55
2021/12/28 00:21:09;;;;;;;47.64;19.89;;;;;;;;;;351104;153;857302;-55
2021/12/28 00:22:11;;;;;;;36.09;19.05;;;;;;;;;;351836;153;857247;-56
2021/12/28 00:23:14;;;;;;;46.40;19.61;;;;;;;;;;351535;149;865995;-55
2021/12/28 00:24:16;;;;;;;50.49;22.41;;;;;;;;;;351826;150;863911;-55
2021/12/28 00:25:17;;;;;;;48.97;21.44;;;;;;;;;;351171;153;859596;-55
2021/12/28 00:26:22;;;;;;;66.34;26.97;;;;;;;;;;349890;151;866875;-55
2021/12/28 00:27:23;;;;;;;40.69;20.20;;;;;;;;;;352583;149;857255;-55
2021/12/28 00:28:24;;;;;;;68.92;24.83;;;;;;;;;;351394;150;857722;-55
2021/12/28 00:29:26;;;;;;;32.65;16.52;;;;;;;;;;351639;150;857338;-55
2021/12/28 00:30:29;;;;;;;53.06;22.72;;;;;;;;;;350136;150;860027;-55
2021/12/28 00:31:30;;;;;;;58.17;23.33;;;;;;;;;;350918;150;857347;-55
2021/12/28 00:32:32;;;;;;;34.03;16.94;;;;;;;;;;350677;153;857345;-55
2021/12/28 00:33:34;;;;;;;55.04;22.71;;;;;;;;;;351448;150;857212;-55
2021/12/28 00:34:35;;;;;;;47.59;20.06;;;;;;;;;;351607;150;866309;-55
2021/12/28 00:35:38;;;;;;;85.61;29.16;;;;;;;;;;349665;151;866445;-55
2021/12/28 00:36:39;;;;;;;47.62;19.61;;;;;;;;;;350994;153;865660;-55
2021/12/28 00:37:41;;;;;;;44.60;21.24;;;;;;;;;;350996;149;860742;-55
2021/12/28 00:38:43;;;;;;;28.73;14.21;;;;;;;;;;351978;150;865030;-55
2021/12/28 00:39:44;;;;;;;38.02;18.81;;;;;;;;;;350601;150;866843;-55
2021/12/28 00:40:46;;;;;;;41.84;20.46;;;;;;;;;;351439;151;857270;-55
2021/12/28 00:41:48;;;;;;;41.96;18.39;;;;;;;;;;352140;149;866767;-55
2021/12/28 00:42:50;;;;;;;29.62;16.49;;;;;;;;;;353215;150;857142;-55
2021/12/28 00:43:52;;;;;;;36.41;17.36;;;;;;;;;;350613;149;864987;-55
2021/12/28 00:44:53;;;;;;;33.66;18.20;;;;;;;;;;352955;149;865989;-54
2021/12/28 00:45:55;;;;;;;34.04;17.79;;;;;;;;;;346619;153;858696;-55
2021/12/28 00:46:56;;;;;;;43.21;20.94;;;;;;;;;;345879;154;857216;-54
2021/12/28 00:47:58;;;;;;;34.53;17.19;;;;;;;;;;340403;157;864776;-55
2021/12/28 00:49:00;;;;;;;30.52;15.13;;;;;;;;;;345142;154;865011;-54
2021/12/28 00:50:01;;;;;;;30.66;15.82;;;;;;;;;;345171;153;865059;-55
2021/12/28 00:51:03;;;;;;;38.43;18.89;;;;;;;;;;339754;155;865097;-57
2021/12/28 00:52:05;;;;;;;36.32;16.99;;;;;;;;;;344954;154;865339;-55
2021/12/28 00:53:07;;;;;;;30.02;15.54;;;;;;;;;;344616;154;857254;-55
2021/12/28 00:54:08;;;;;;;31.10;15.57;;;;;;;;;;344456;153;867996;-55
2021/12/28 00:55:12;;;;;;;36.02;16.91;;;;;;;;;;344238;153;865022;-55
2021/12/28 00:56:14;;;;;;;35.71;16.54;;;;;;;;;;344602;155;860207;-55
2021/12/28 00:57:15;;;;;;;40.16;18.72;;;;;;;;;;344495;153;857410;-55
2021/12/28 00:58:17;;;;;;;39.23;20.09;;;;;;;;;;344449;156;865323;-55
2021/12/28 00:59:18;;;;;;;34.90;17.61;;;;;;;;;;344241;156;857222;-55
2021/12/28 01:00:25;;;;;;;42.69;18.87;;;;;;;;;;346063;153;862821;-55
2021/12/28 01:01:27;;;;;;;33.13;17.66;;;;;;;;;;343166;156;858546;-54
2021/12/28 01:02:29;;;;;;;31.02;16.50;;;;;;;;;;344435;156;857405;-54
2021/12/28 01:03:34;;;;;;;43.34;19.56;;;;;;;;;;339835;157;867673;-54
2021/12/28 01:04:34;;;;;;;33.41;15.71;;;;;;;;;;339725;155;865286;-56
2021/12/28 01:05:36;;;;;;;35.81;18.71;;;;;;;;;;341640;154;857849;-54
2021/12/28 01:06:37;;;;;;;36.00;17.37;;;;;;;;;;341713;155;859549;-55
2021/12/28 01:07:39;;;;;;;39.46;19.13;;;;;;;;;;340209;154;859785;-55
2021/12/28 01:08:40;;;;;;;31.38;16.55;;;;;;;;;;345105;152;865216;-54
2021/12/28 01:09:43;;;;;;;36.76;18.69;;;;;;;;;;346242;154;866867;-54
2021/12/28 01:10:46;;;;;;;30.01;15.95;;;;;;;;;;346488;152;865046;-55
2021/12/28 01:11:48;;;;;;;26.23;14.97;;;;;;;;;;345707;153;857895;-55
2021/12/28 01:12:52;;;;;;;33.06;16.29;;;;;;;;;;345519;153;865468;-54
2021/12/28 01:13:53;;;;;;;36.39;17.84;;;;;;;;;;341129;156;864953;-55
2021/12/28 01:14:55;;;;;;;47.56;21.69;;;;;;;;;;345841;153;858472;-54
2021/12/28 01:15:56;;;;;;;29.18;15.29;;;;;;;;;;345615;153;864341;-54
2021/12/28 01:16:59;;;;;;;23.76;13.81;;;;;;;;;;346203;152;865056;-54
2021/12/28 01:18:00;;;;;;;33.88;17.14;;;;;;;;;;346531;153;863176;-54
2021/12/28 01:19:02;;;;;;;37.03;18.33;;;;;;;;;;340111;156;859083;-54
2021/12/28 01:20:05;;;;;;;24.10;13.72;;;;;;;;;;344965;152;865083;-55
2021/12/28 01:21:07;;;;;;;23.40;13.10;;;;;;;;;;341723;157;857427;-54
2021/12/28 01:22:09;;;;;;;25.23;13.14;;;;;;;;;;342682;156;857377;-55
2021/12/28 01:23:11;;;;;;;22.13;12.09;;;;;;;;;;345346;153;857403;-54
2021/12/28 01:24:12;;;;;;;22.33;13.33;;;;;;;;;;345984;153;864890;-52
2021/12/28 01:25:14;;;;;;;23.04;12.72;;;;;;;;;;346810;152;858965;-55
2021/12/28 01:26:16;;;;;;;26.43;13.17;;;;;;;;;;346062;152;858176;-55
2021/12/28 01:27:18;;;;;;;23.21;12.42;;;;;;;;;;345615;153;865732;-55
2021/12/28 01:28:19;;;;;;;17.95;10.56;;;;;;;;;;343726;155;859695;-55
2021/12/28 01:29:21;;;;;;;18.59;10.07;;;;;;;;;;346281;154;865421;-55
2021/12/28 01:30:24;;;;;;;21.60;12.46;;;;;;;;;;346217;152;858986;-54
2021/12/28 01:31:26;;;;;;;23.43;13.17;;;;;;;;;;343699;153;857779;-55
2021/12/28 01:32:27;;;;;;;23.29;13.50;;;;;;;;;;343650;154;858811;-54
2021/12/28 01:33:29;;;;;;;23.17;13.08;;;;;;;;;;345821;153;858651;-54
2021/12/28 01:34:30;;;;;;;25.11;13.24;;;;;;;;;;344891;153;863336;-55
2021/12/28 01:35:32;;;;;;;23.51;12.51;;;;;;;;;;344974;153;859617;-55
2021/12/28 01:36:33;;;;;;;30.34;14.64;;;;;;;;;;346032;153;857285;-54
2021/12/28 01:37:35;;;;;;;21.31;10.75;;;;;;;;;;346157;154;857280;-55
2021/12/28 01:38:37;;;;;;;19.76;12.21;;;;;;;;;;345350;153;865936;-55
2021/12/28 01:39:38;;;;;;;24.12;14.05;;;;;;;;;;343617;152;862170;-54
2021/12/28 01:40:40;;;;;;;23.35;13.97;;;;;;;;;;345491;152;865150;-54
2021/12/28 01:41:42;;;;;;;18.87;11.45;;;;;;;;;;346455;153;857478;-54
2021/12/28 01:42:54;;;;;;;22.00;11.54;;;;;;;;;;345040;153;857624;-54
2021/12/28 01:43:56;;;;;;;20.84;12.18;;;;;;;;;;346595;154;865728;-54
2021/12/28 01:44:57;;;;;;;21.67;12.23;;;;;;;;;;347096;154;857235;-54
2021/12/28 01:46:02;;;;;;;23.64;12.53;;;;;;;;;;346501;152;858926;-51
2021/12/28 01:47:04;;;;;;;21.02;10.73;;;;;;;;;;346194;153;857225;-55
2021/12/28 01:48:06;;;;;;;23.43;12.95;;;;;;;;;;338704;157;857487;-55
2021/12/28 01:49:08;;;;;;;25.39;13.31;;;;;;;;;;340455;155;858541;-54
2021/12/28 01:50:09;;;;;;;23.59;12.59;;;;;;;;;;341479;155;857384;-55
2021/12/28 01:51:12;;;;;;;22.82;13.05;;;;;;;;;;346983;154;857722;-54
2021/12/28 01:52:13;;;;;;;20.39;12.18;;;;;;;;;;345084;154;864962;-54
2021/12/28 01:53:15;;;;;;;21.61;12.23;;;;;;;;;;346024;153;857397;-56
2021/12/28 01:54:17;;;;;;;21.19;12.14;;;;;;;;;;345524;154;864898;-57
2021/12/28 01:55:18;;;;;;;15.68;7.95;;;;;;;;;;338647;157;857877;-56
2021/12/28 01:56:22;;;;;;;18.45;10.09;;;;;;;;;;347793;152;857387;-56
2021/12/28 01:57:23;;;;;;;18.42;11.65;;;;;;;;;;345938;152;857297;-56
2021/12/28 01:58:25;;;;;;;23.26;12.60;;;;;;;;;;340596;157;857297;-56
2021/12/28 01:59:26;;;;;;;19.64;12.39;;;;;;;;;;345409;154;858665;-54
2021/12/28 02:00:28;;;;;;;25.29;12.43;;;;;;;;;;343015;154;866062;-54
2021/12/28 02:01:30;;;;;;;18.56;9.31;;;;;;;;;;345838;154;864729;-55
2021/12/28 02:02:31;;;;;;;22.23;13.24;;;;;;;;;;348051;154;859518;-55
2021/12/28 02:03:34;;;;;;;24.31;12.31;;;;;;;;;;343121;155;865861;-55
2021/12/28 02:04:35;;;;;;;20.61;11.97;;;;;;;;;;343932;155;866701;-55
2021/12/28 02:05:37;;;;;;;16.41;9.81;;;;;;;;;;339679;154;858724;-55
2021/12/28 02:06:39;;;;;;;25.17;12.99;;;;;;;;;;339565;154;865600;-54
2021/12/28 02:07:40;;;;;;;28.65;13.39;;;;;;;;;;340739;156;858005;-56
2021/12/28 02:08:42;;;;;;;24.19;13.36;;;;;;;;;;345295;152;866408;-56
2021/12/28 02:09:43;;;;;;;23.38;12.96;;;;;;;;;;344927;155;862906;-56
2021/12/28 02:10:45;;;;;;;24.07;12.92;;;;;;;;;;340146;155;864948;-56
2021/12/28 02:11:47;;;;;;;24.49;13.38;;;;;;;;;;346338;152;864805;-55
2021/12/28 02:12:49;;;;;;;27.32;14.46;;;;;;;;;;345893;152;857271;-55
2021/12/28 02:13:50;;;;;;;26.61;13.46;;;;;;;;;;340632;156;864997;-54
2021/12/28 02:14:52;;;;;;;25.01;13.80;;;;;;;;;;337230;156;858969;-54
2021/12/28 02:15:54;;;;;;;25.41;14.17;;;;;;;;;;347904;152;863490;-54
2021/12/28 02:16:55;;;;;;;23.89;12.67;;;;;;;;;;343501;154;864266;-54
2021/12/28 02:17:57;;;;;;;25.49;13.31;;;;;;;;;;346952;152;856173;-54
2021/12/28 02:18:58;;;;;;;25.69;13.12;;;;;;;;;;346416;154;857350;-54
2021/12/28 02:20:04;;;;;;;26.39;14.45;;;;;;;;;;347380;152;858958;-54
2021/12/28 02:21:06;;;;;;;21.99;13.79;;;;;;;;;;346142;154;857363;-54
2021/12/28 02:22:08;;;;;;;23.63;14.89;;;;;;;;;;346136;154;858827;-54
2021/12/28 02:23:10;;;;;;;23.45;11.69;;;;;;;;;;344848;152;858741;-55
2021/12/28 02:24:11;;;;;;;22.05;13.43;;;;;;;;;;346748;152;857288;-55
2021/12/28 02:25:13;;;;;;;26.60;13.29;;;;;;;;;;346727;153;865869;-55
2021/12/28 02:26:15;;;;;;;23.05;13.41;;;;;;;;;;347028;153;859905;-56
2021/12/28 02:27:16;;;;;;;21.29;12.11;;;;;;;;;;346124;152;858125;-55
2021/12/28 02:28:18;;;;;;;22.41;12.60;;;;;;;;;;347729;155;864929;-55
2021/12/28 02:29:19;;;;;;;25.02;12.82;;;;;;;;;;346308;154;864926;-55
2021/12/28 02:30:21;;;;;;;23.76;13.01;;;;;;;;;;347133;153;857303;-55
2021/12/28 02:31:23;;;;;;;27.17;13.61;;;;;;;;;;344324;154;857364;-54
2021/12/28 02:32:25;;;;;;;27.81;14.27;;;;;;;;;;346122;154;866788;-55
2021/12/28 02:33:27;;;;;;;25.46;14.01;;;;;;;;;;346348;153;857440;-54
2021/12/28 02:34:28;;;;;;;27.31;14.27;;;;;;;;;;345243;152;857827;-54
2021/12/28 02:35:30;;;;;;;28.05;14.59;;;;;;;;;;346691;153;857838;-55
2021/12/28 02:36:31;;;;;;;24.28;13.61;;;;;;;;;;346377;152;860373;-55
2021/12/28 02:37:33;;;;;;;30.70;14.33;;;;;;;;;;345791;152;866522;-54
2021/12/28 02:38:35;;;;;;;26.04;15.71;;;;;;;;;;342554;154;857547;-56
2021/12/28 02:39:36;;;;;;;31.17;16.51;;;;;;;;;;345294;155;867018;-55
2021/12/28 02:40:38;;;;;;;29.68;15.44;;;;;;;;;;344627;154;857514;-54
2021/12/28 02:41:40;;;;;;;32.28;15.75;;;;;;;;;;346917;152;865619;-55
2021/12/28 02:42:41;;;;;;;27.68;15.01;;;;;;;;;;347153;152;857595;-55
2021/12/28 02:43:45;;;;;;;36.36;18.51;;;;;;;;;;359501;149;865077;-55
2021/12/28 02:44:57;;;;;;;34.11;17.14;;;;;;;;;;358900;147;865058;-55
2021/12/28 02:46:01;;;;;;;29.05;14.92;;;;;;;;;;359368;147;858810;-56
2021/12/28 02:47:03;;;;;;;29.36;16.28;;;;;;;;;;351620;153;857847;-55
2021/12/28 02:48:05;;;;;;;30.66;15.97;;;;;;;;;;358530;149;859490;-54
2021/12/28 02:49:07;;;;;;;28.86;16.18;;;;;;;;;;360250;147;858795;-54
2021/12/28 02:50:13;;;;;;;31.91;16.29;;;;;;;;;;356063;149;857807;-54
2021/12/28 02:51:16;;;;;;;31.10;17.06;;;;;;;;;;351465;150;857291;-56
2021/12/28 02:52:17;;;;;;;34.65;17.65;;;;;;;;;;359310;148;857704;-55
2021/12/28 02:53:19;;;;;;;31.14;16.09;;;;;;;;;;362200;147;857305;-54
2021/12/28 02:54:21;;;;;;;28.59;15.59;;;;;;;;;;358407;147;866685;-56
2021/12/28 02:55:23;;;;;;;32.41;15.92;;;;;;;;;;358675;147;866995;-55
2021/12/28 02:56:25;;;;;;;30.96;16.29;;;;;;;;;;359545;147;858268;-55
2021/12/28 02:57:26;;;;;;;31.26;16.05;;;;;;;;;;363201;147;859095;-55
2021/12/28 02:58:33;;;;;;;37.36;18.47;;;;;;;;;;359042;148;864985;-54
2021/12/28 02:59:35;;;;;;;27.47;15.00;;;;;;;;;;358077;147;866663;-57
2021/12/28 03:00:41;;;;;;;31.21;15.25;;;;;;;;;;353522;149;857455;-56
2021/12/28 03:01:43;;;;;;;28.56;14.47;;;;;;;;;;352825;150;865067;-56
2021/12/28 03:02:45;;;;;;;33.81;16.41;;;;;;;;;;357378;148;857840;-56
2021/12/28 03:03:47;;;;;;;29.44;16.23;;;;;;;;;;359182;147;858587;-55
2021/12/28 03:04:49;;;;;;;26.37;15.82;;;;;;;;;;363183;147;865545;-54
2021/12/28 03:05:51;;;;;;;27.41;14.61;;;;;;;;;;354211;150;858891;-55
2021/12/28 03:06:53;;;;;;;29.03;13.93;;;;;;;;;;358876;148;864808;-54
2021/12/28 03:07:54;;;;;;;28.10;14.28;;;;;;;;;;359237;148;857530;-54
2021/12/28 03:08:56;;;;;;;30.72;14.82;;;;;;;;;;357672;149;856462;-54
2021/12/28 03:09:58;;;;;;;21.77;13.50;;;;;;;;;;355854;148;864952;-55
2021/12/28 03:11:01;;;;;;;27.05;14.65;;;;;;;;;;358765;147;856461;-54
2021/12/28 03:12:03;;;;;;;30.68;15.76;;;;;;;;;;358732;147;866760;-55
2021/12/28 03:13:05;;;;;;;27.84;15.16;;;;;;;;;;358442;149;858984;-55
2021/12/28 03:14:06;;;;;;;29.51;17.01;;;;;;;;;;359757;148;857833;-55
2021/12/28 03:15:08;;;;;;;33.91;17.81;;;;;;;;;;358750;147;857315;-55
2021/12/28 03:16:11;;;;;;;32.90;17.45;;;;;;;;;;358571;148;866341;-55
2021/12/28 03:17:12;;;;;;;33.71;17.38;;;;;;;;;;352806;151;859616;-55
2021/12/28 03:18:14;;;;;;;27.65;14.15;;;;;;;;;;352608;151;857248;-54
2021/12/28 03:19:15;;;;;;;30.64;17.05;;;;;;;;;;359855;147;865113;-55
2021/12/28 03:20:17;;;;;;;27.37;14.78;;;;;;;;;;359101;148;866722;-55
2021/12/28 03:21:19;;;;;;;27.28;14.65;;;;;;;;;;357900;148;857268;-55
2021/12/28 03:22:21;;;;;;;26.09;15.52;;;;;;;;;;359462;148;866631;-55
2021/12/28 03:23:23;;;;;;;30.44;14.92;;;;;;;;;;359562;147;857085;-55
2021/12/28 03:24:25;;;;;;;29.24;14.94;;;;;;;;;;355965;150;866181;-55
2021/12/28 03:25:26;;;;;;;29.79;15.01;;;;;;;;;;359534;147;859036;-55
2021/12/28 03:26:28;;;;;;;28.70;14.93;;;;;;;;;;360692;147;860258;-55
2021/12/28 03:27:29;;;;;;;27.01;15.04;;;;;;;;;;357673;149;865322;-55
2021/12/28 03:28:32;;;;;;;29.51;16.31;;;;;;;;;;356857;148;864979;-55
2021/12/28 03:29:33;;;;;;;31.45;15.87;;;;;;;;;;358768;147;865134;-54
2021/12/28 03:30:35;;;;;;;31.11;15.97;;;;;;;;;;359281;147;857339;-55
2021/12/28 03:31:36;;;;;;;29.08;15.40;;;;;;;;;;359322;148;866994;-54
2021/12/28 03:32:38;;;;;;;31.38;16.67;;;;;;;;;;358693;147;857373;-54
2021/12/28 03:33:40;;;;;;;31.30;15.34;;;;;;;;;;359870;147;861787;-55
2021/12/28 03:34:42;;;;;;;30.85;14.95;;;;;;;;;;359885;147;866163;-55
2021/12/28 03:35:44;;;;;;;32.36;16.02;;;;;;;;;;364571;147;865135;-55
2021/12/28 03:36:45;;;;;;;28.36;15.59;;;;;;;;;;358681;147;865917;-55
2021/12/28 03:37:47;;;;;;;29.08;15.84;;;;;;;;;;359987;147;865408;-55
2021/12/28 03:38:49;;;;;;;34.72;15.68;;;;;;;;;;359062;148;865398;-55
2021/12/28 03:39:50;;;;;;;27.53;15.46;;;;;;;;;;359234;147;864881;-55
2021/12/28 03:40:52;;;;;;;27.64;15.86;;;;;;;;;;360185;147;857207;-55
2021/12/28 03:41:54;;;;;;;29.03;15.25;;;;;;;;;;359187;147;864968;-55
2021/12/28 03:42:55;;;;;;;33.09;16.05;;;;;;;;;;359057;150;857333;-54
2021/12/28 03:43:57;;;;;;;33.45;16.50;;;;;;;;;;359515;148;866108;-55
2021/12/28 03:44:58;;;;;;;34.55;16.58;;;;;;;;;;357323;147;857225;-54
2021/12/28 03:46:00;;;;;;;34.49;15.56;;;;;;;;;;358253;147;864985;-55
2021/12/28 03:47:02;;;;;;;30.98;15.42;;;;;;;;;;356569;149;863475;-55
2021/12/28 03:48:04;;;;;;;34.23;15.79;;;;;;;;;;358484;147;866646;-56
2021/12/28 03:49:06;;;;;;;33.65;15.07;;;;;;;;;;359127;147;858547;-55
2021/12/28 03:50:08;;;;;;;30.59;15.74;;;;;;;;;;356258;148;857282;-55
2021/12/28 03:51:10;;;;;;;27.94;15.07;;;;;;;;;;357224;148;857221;-56
2021/12/28 03:52:12;;;;;;;38.30;17.20;;;;;;;;;;358704;147;859751;-55
2021/12/28 03:53:13;;;;;;;27.91;14.21;;;;;;;;;;361324;147;864956;-54
2021/12/28 03:54:15;;;;;;;27.05;13.71;;;;;;;;;;358963;150;864924;-55
2021/12/28 03:55:16;;;;;;;30.46;16.19;;;;;;;;;;358785;148;857618;-54
2021/12/28 03:56:18;;;;;;;29.69;15.19;;;;;;;;;;361183;147;857151;-54
2021/12/28 03:57:20;;;;;;;26.30;14.99;;;;;;;;;;357341;149;859014;-55
2021/12/28 03:58:21;;;;;;;27.42;14.04;;;;;;;;;;354722;149;860439;-55
2021/12/28 03:59:23;;;;;;;31.30;16.16;;;;;;;;;;359256;147;863757;-55
2021/12/28 04:00:26;;;;;;;27.59;15.52;;;;;;;;;;359086;147;865647;-56
2021/12/28 04:01:28;;;;;;;28.67;15.15;;;;;;;-5.43;0.00;-19382.39;357413;149;858590;-56
2021/12/28 04:02:29;;;;;;;29.25;14.81;;;;;;;;;;358447;147;859763;-56
2021/12/28 04:03:31;;;;;;;26.56;14.27;;;;;;;;;;358989;147;858984;-55
2021/12/28 04:04:32;;;;;;;24.56;14.85;;;;;;;;;;357058;148;865023;-55
2021/12/28 04:05:34;;;;;;;29.82;14.90;;;;;;;;;;359353;147;861897;-54
2021/12/28 04:06:36;;;;;;;22.52;13.21;;;;;;;;;;358949;147;865063;-55
2021/12/28 04:07:38;;;;;;;26.27;13.88;;;;;;;;;;358065;147;864968;-55
2021/12/28 04:08:40;;;;;;;27.90;14.77;;;;;;;;;;357203;149;857321;-54
2021/12/28 04:09:57;;;;;;;26.54;14.84;;;;;;;;;;358476;147;865038;-55
2021/12/28 04:10:55;;;;;;;24.77;13.77;;;;;;;;;;356378;147;857466;-54
2021/12/28 04:11:52;;;;;;;27.13;14.93;;;;;;;;;;355269;147;857298;-56
2021/12/28 04:12:54;;;;;;;26.85;14.78;;;;;;;;;;352569;150;866523;-54
2021/12/28 04:13:58;;;;;;;26.88;15.06;;;;;;;;;;352398;150;856473;-54
2021/12/28 04:15:00;;;;;;;26.74;14.94;;;;;;;;;;357616;148;863959;-54
2021/12/28 04:16:02;;;;;;;26.54;14.01;;;;;;;;;;356712;149;857351;-54
2021/12/28 04:17:03;;;;;;;25.93;14.57;;;;;;;;;;357132;148;856656;-54
2021/12/28 04:18:05;;;;;;;27.11;15.46;;;;;;;;;;358539;148;865333;-54
2021/12/28 04:19:06;;;;;;;29.89;14.64;;;;;;;;;;359136;147;859245;-54
2021/12/28 04:20:10;;;;;;;28.39;15.04;;;;;;;;;;359399;147;865292;-54
2021/12/28 04:21:12;;;;;;;29.64;14.66;;;;;;;;;;359490;148;865084;-54
2021/12/28 04:22:14;;;;;;;24.38;14.34;;;;;;;;;;358085;147;857360;-56
2021/12/28 04:23:17;;;;;;;28.95;15.08;;;;;;;;;;359776;147;859081;-55
2021/12/28 04:24:19;;;;;;;25.70;14.74;;;;;;;;;;359074;149;865021;-55
2021/12/28 04:25:20;;;;;;;28.46;14.22;;;;;;;;;;358207;147;860282;-54
2021/12/28 04:26:24;;;;;;;30.57;15.66;;;;;;;;;;358129;147;857093;-54
2021/12/28 04:27:26;;;;;;;25.34;14.19;;;;;;;;;;352212;151;857892;-55
2021/12/28 04:28:27;;;;;;;27.29;15.26;;;;;;;;;;359594;147;857689;-57
2021/12/28 04:29:28;;;;;;;27.61;15.29;;;;;;;;;;357388;147;857601;-54
2021/12/28 04:30:30;;;;;;;26.97;15.06;;;;;;;;;;359654;147;857717;-54
2021/12/28 04:31:32;;;;;;;25.44;14.21;;;;;;;;;;355578;148;864998;-54
2021/12/28 04:32:34;;;;;;;28.16;13.32;;;;;;;;;;358154;147;866604;-55
2021/12/28 04:33:37;;;;;;;30.66;15.04;;;;;;;;;;359854;147;857364;-55
2021/12/28 04:34:39;;;;;;;26.50;14.86;;;;;;;;;;359161;147;866721;-54
2021/12/28 04:35:41;;;;;;;25.23;14.82;;;;;;;;;;358466;148;864901;-54
2021/12/28 04:36:42;;;;;;;27.80;14.51;;;;;;;;;;358970;147;865071;-54
2021/12/28 04:37:44;;;;;;;28.33;15.51;;;;;;;;;;358353;147;866297;-54
2021/12/28 04:38:45;;;;;;;30.22;15.54;;;;;;;;;;355348;150;865793;-54
2021/12/28 04:39:47;;;;;;;27.69;14.41;;;;;;;;;;357106;148;857099;-54
2021/12/28 04:40:48;;;;;;;28.81;15.36;;;;;;;;;;359402;147;863950;-54
2021/12/28 04:41:50;;;;;;;31.57;14.93;;;;;;;;;;357450;146;864923;-54
2021/12/28 04:42:52;;;;;;;29.49;14.24;;;;;;;;;;359025;148;865323;-54
2021/12/28 04:43:53;;;;;;;28.35;13.94;;;;;;;;;;357268;148;859545;-54
2021/12/28 04:44:55;;;;;;;30.49;14.99;;;;;;;;;;358494;147;865563;-55
2021/12/28 04:45:56;;;;;;;27.45;13.81;;;;;;;;;;358354;149;857260;-55
2021/12/28 04:46:58;;;;;;;31.91;15.46;;;;;;;;;;357852;148;866676;-54
2021/12/28 04:47:59;;;;;;;27.61;15.04;;;;;;;;;;359509;147;866631;-54
2021/12/28 04:49:01;;;;;;;28.28;14.72;;;;;;;;;;359191;147;857091;-54
2021/12/28 04:50:04;;;;;;;28.09;15.14;;;;;;;;;;358659;147;861841;-54
2021/12/28 04:51:06;;;;;;;31.09;16.12;;;;;;;;;;358178;149;865630;-55
2021/12/28 04:52:07;;;;;;;27.43;15.57;;;;;;;;;;358739;147;857141;-56
2021/12/28 04:53:10;;;;;;;34.67;16.09;;;;;;;;;;358054;147;856097;-56
2021/12/28 04:54:12;;;;;;;30.01;14.86;;;;;;;;;;359007;148;865594;-55
2021/12/28 04:55:15;;;;;;;28.05;14.48;;;;;;;;;;359023;147;865035;-57
2021/12/28 04:56:17;;;;;;;27.90;14.21;;;;;;;;;;358563;147;864833;-57
2021/12/28 04:57:19;;;;;;;30.72;15.65;;;;;;;;;;358046;150;856389;-57
2021/12/28 04:58:20;;;;;;;28.58;13.54;;;;;;;;;;358646;148;864997;-56
2021/12/28 04:59:22;;;;;;;29.85;14.50;;;;;;;;;;358231;147;857253;-57
2021/12/28 05:00:24;;;;;;;30.26;14.69;;;;;;;;;;357490;147;864926;-59
2021/12/28 05:01:25;;;;;;;29.85;15.13;;;;;;;;;;359022;149;857510;-58
2021/12/28 05:02:29;;;;;;;31.42;14.84;;;;;;;;;;356831;147;857256;-57
2021/12/28 05:03:30;;;;;;;26.60;13.73;;;;;;;;;;359244;147;858947;-56
2021/12/28 05:04:32;;;;;;;27.06;14.37;;;;;;;;;;354590;151;857654;-57
2021/12/28 05:05:33;;;;;;;28.16;15.57;;;;;;;;;;358987;148;865560;-56
2021/12/28 05:06:35;;;;;;;26.34;14.26;;;;;;;;;;358910;147;866876;-58
2021/12/28 05:07:37;;;;;;;26.93;15.48;;;;;;;;;;358696;147;865743;-55
2021/12/28 05:08:39;;;;;;;27.26;14.48;;;;;;;;;;345167;156;857902;-57
2021/12/28 05:09:41;;;;;;;22.43;13.68;;;;;;;;;;357297;148;866751;-60
2021/12/28 05:10:42;;;;;;;24.33;13.08;;;;;;;;;;358392;147;865730;-57
2021/12/28 05:11:44;;;;;;;25.19;14.47;;;;;;;;;;357438;148;864070;-61
2021/12/28 05:12:46;;;;;;;26.29;14.19;;;;;;;;;;359301;148;864929;-58
2021/12/28 05:13:48;;;;;;;25.08;12.96;;;;;;;;;;349622;151;857266;-58
2021/12/28 05:14:49;;;;;;;27.46;14.76;;;;;;;;;;361485;147;864758;-58
2021/12/28 05:15:52;;;;;;;20.81;12.06;;;;;;;;;;357553;150;864826;-58
2021/12/28 05:16:53;;;;;;;25.75;14.02;;;;;;;;;;358254;147;857623;-55
2021/12/28 05:17:55;;;;;;;24.46;13.63;;;;;;;;;;360350;147;857699;-58
2021/12/28 05:18:57;;;;;;;28.16;14.31;;;;;;;;;;357518;147;864199;-58
2021/12/28 05:19:58;;;;;;;26.79;13.57;;;;;;;;;;358785;148;866732;-56
2021/12/28 05:21:00;;;;;;;26.25;14.63;;;;;;;;;;359023;147;865509;-55
2021/12/28 05:22:02;;;;;;;25.08;13.87;;;;;;;;;;359149;147;868950;-58
2021/12/28 05:23:04;;;;;;;29.61;14.87;;;;;;;;;;358273;149;857365;-56
2021/12/28 05:24:05;;;;;;;27.61;14.44;;;;;;;;;;358208;147;865477;-56
2021/12/28 05:25:07;;;;;;;26.63;14.89;;;;;;;;;;357543;147;858136;-56
2021/12/28 05:26:09;;;;;;;34.04;16.88;;;;;;;;;;357439;147;858800;-55
2021/12/28 05:27:11;;;;;;;39.13;20.42;;;;;;;;;;356095;149;858241;-55
2021/12/28 05:28:12;;;;;;;40.73;20.06;;;;;;;;;;350330;152;865725;-54
2021/12/28 05:29:13;;;;;;;34.44;16.91;;;;;;;;;;358768;146;857275;-56
2021/12/28 05:30:15;;;;;;;38.03;19.35;;;;;;;;;;358649;146;857778;-55
2021/12/28 05:31:17;;;;;;;34.83;17.11;;;;;;;;;;357908;147;857739;-55
2021/12/28 05:32:18;;;;;;;25.97;13.14;;;;;;;;;;356789;148;857366;-55
2021/12/28 05:33:21;;;;;;;23.99;11.89;;;;;;;;;;356996;147;861762;-56
2021/12/28 05:34:22;;;;;;;29.98;15.94;;;;;;;;;;356560;148;860049;-55
2021/12/28 05:35:24;;;;;;;28.69;15.86;;;;;;;;;;357741;149;857120;-58
2021/12/28 05:36:26;;;;;;;31.59;16.56;;;;;;;;;;358445;147;865360;-58
2021/12/28 05:37:27;;;;;;;27.05;14.69;;;;;;;;;;359429;147;857709;-56
2021/12/28 05:38:29;;;;;;;28.84;15.67;;;;;;;;;;358152;148;866707;-55
2021/12/28 05:39:30;;;;;;;27.04;14.34;;;;;;;;;;357855;148;866787;-57
2021/12/28 05:40:32;;;;;;;31.39;15.51;;;;;;;;;;359195;147;865683;-56
2021/12/28 05:41:34;;;;;;;27.34;15.46;;;;;;;;;;356619;148;865892;-56
2021/12/28 05:42:35;;;;;;;26.37;14.60;;;;;;;;;;356938;147;865718;-55
2021/12/28 05:43:37;;;;;;;25.00;14.19;;;;;;;;;;358067;147;867856;-55
2021/12/28 05:44:38;;;;;;;29.46;13.81;;;;;;;;;;356708;147;863438;-56
2021/12/28 05:45:40;;;;;;;26.45;14.78;;;;;;;;;;357163;147;865886;-59
2021/12/28 05:46:42;;;;;;;31.65;15.31;;;;;;;;;;357637;147;863678;-55
2021/12/28 05:47:44;;;;;;;26.74;15.08;;;;;;;;;;358527;147;859272;-55
2021/12/28 05:48:47;;;;;;;27.88;15.74;;;;;;;;;;358240;147;864013;-58
2021/12/28 05:49:48;;;;;;;26.34;14.41;;;;;;;;;;359739;147;864927;-55
2021/12/28 05:50:50;;;;;;;30.02;16.71;;;;;;;;;;358694;147;858822;-56
2021/12/28 05:51:52;;;;;;;39.28;19.16;;;;;;;;;;358899;147;864967;-57
2021/12/28 05:52:53;;;;;;;60.71;31.09;;;;;;;;;;351651;150;864504;-58
2021/12/28 05:53:55;;;;;;;28.09;16.02;;;;;;;;;;351663;150;864888;-58
2021/12/28 05:54:56;;;;;;;28.03;14.81;;;;;;;;;;357606;147;865057;-57
2021/12/28 05:55:58;;;;;;;32.09;15.15;;;;;;;;;;356594;147;857394;-57
2021/12/28 05:56:59;;;;;;;28.04;14.84;;;;;;;;;;357285;148;861850;-56